createdAt,value
2024-03-27T00:01:10.889Z,10.26
2024-03-27T00:03:45.571Z,10.25
2024-03-27T00:06:12.259Z,10.28
2024-03-27T00:08:39.126Z,10.26
2024-03-27T00:11:05.622Z,10.28
2024-03-27T00:13:32.696Z,10.30
2024-03-27T00:15:59.300Z,10.31
2024-03-27T00:18:26.406Z,10.31
2024-03-27T00:20:53.244Z,10.31
2024-03-27T00:23:20.045Z,10.31
2024-03-27T00:25:46.624Z,10.32
2024-03-27T00:28:13.463Z,10.37
2024-03-27T00:30:40.374Z,10.36
2024-03-27T00:33:07.402Z,10.35
2024-03-27T00:35:33.860Z,10.34
2024-03-27T00:38:00.764Z,10.29
2024-03-27T00:40:27.535Z,10.33
2024-03-27T00:42:55.914Z,10.29
2024-03-27T00:45:22.927Z,10.33
2024-03-27T00:47:49.848Z,10.32
2024-03-27T00:50:16.332Z,10.29
2024-03-27T00:52:43.215Z,10.29
2024-03-27T00:55:09.684Z,10.31
2024-03-27T00:57:36.604Z,10.28
2024-03-27T01:00:03.619Z,10.28
2024-03-27T01:02:30.459Z,10.26
2024-03-27T01:04:57.072Z,10.25
2024-03-27T01:07:24.119Z,10.19
2024-03-27T01:09:50.655Z,10.20
2024-03-27T01:12:17.451Z,10.14
2024-03-27T01:14:44.166Z,10.13
2024-03-27T01:17:10.795Z,10.11
2024-03-27T01:19:37.576Z,10.09
2024-03-27T01:22:04.367Z,10.09
2024-03-27T01:24:30.969Z,10.11
2024-03-27T01:26:57.923Z,10.09
2024-03-27T01:29:24.272Z,10.05
2024-03-27T01:31:51.116Z,10.02
2024-03-27T01:34:17.644Z,10.00
2024-03-27T01:36:44.463Z,10.03
2024-03-27T01:39:10.903Z,10.00
2024-03-27T01:41:38.026Z,9.99
2024-03-27T01:44:04.493Z,9.99
2024-03-27T01:46:31.672Z,9.95
2024-03-27T01:48:58.185Z,9.95
2024-03-27T01:51:25.026Z,9.97
2024-03-27T01:53:51.660Z,9.91
2024-03-27T01:56:19.361Z,9.84
2024-03-27T01:58:46.746Z,9.83
2024-03-27T02:01:13.494Z,9.78
2024-03-27T02:03:40.732Z,9.77
2024-03-27T02:06:08.666Z,9.76
2024-03-27T02:08:35.609Z,9.73
2024-03-27T02:11:02.951Z,9.72
2024-03-27T02:13:30.160Z,9.69
2024-03-27T02:16:01.095Z,9.65
2024-03-27T02:18:27.820Z,9.67
2024-03-27T02:21:22.471Z,9.60
2024-03-27T02:24:17.801Z,9.60
2024-03-27T02:26:45.124Z,9.49
2024-03-27T02:29:11.687Z,9.51
2024-03-27T02:31:39.127Z,9.51
2024-03-27T02:34:06.105Z,9.50
2024-03-27T02:36:33.112Z,9.45
2024-03-27T02:38:59.874Z,9.41
2024-03-27T02:41:26.984Z,9.45
2024-03-27T02:43:54.298Z,9.42
2024-03-27T02:46:21.189Z,9.41
2024-03-27T02:48:48.267Z,9.36
2024-03-27T02:51:15.260Z,9.33
2024-03-27T02:53:41.931Z,9.26
2024-03-27T02:56:08.705Z,9.29
2024-03-27T02:58:35.233Z,9.24
2024-03-27T03:01:02.150Z,9.22
2024-03-27T03:03:28.968Z,9.25
2024-03-27T03:05:59.190Z,9.23
2024-03-27T03:08:25.693Z,9.23
2024-03-27T03:10:53.332Z,9.24
2024-03-27T03:13:20.224Z,9.17
2024-03-27T03:15:46.957Z,9.13
2024-03-27T03:18:13.522Z,9.15
2024-03-27T03:20:40.258Z,9.14
2024-03-27T03:23:06.871Z,9.17
2024-03-27T03:25:34.129Z,9.13
2024-03-27T03:28:00.889Z,9.14
2024-03-27T03:30:28.091Z,9.11
2024-03-27T03:32:54.946Z,9.05
2024-03-27T03:35:21.712Z,9.03
2024-03-27T03:37:48.129Z,9.00
2024-03-27T03:40:15.277Z,8.98
2024-03-27T03:42:41.613Z,8.96
2024-03-27T03:45:08.632Z,8.95
2024-03-27T03:47:35.360Z,8.93
2024-03-27T03:50:02.444Z,8.89
2024-03-27T03:52:28.912Z,8.91
2024-03-27T03:54:55.712Z,8.88
2024-03-27T03:57:22.054Z,8.86
2024-03-27T03:59:48.769Z,8.90
2024-03-27T04:02:15.490Z,8.85
2024-03-27T04:04:42.421Z,8.81
2024-03-27T04:07:09.121Z,8.84
2024-03-27T04:09:35.904Z,8.80
2024-03-27T04:12:02.484Z,8.77
2024-03-27T04:14:29.434Z,8.77
2024-03-27T04:16:55.826Z,8.75
2024-03-27T04:19:22.661Z,8.72
2024-03-27T04:21:49.030Z,8.68
2024-03-27T04:24:16.778Z,8.71
2024-03-27T04:26:43.705Z,8.66
2024-03-27T04:29:11.216Z,8.63
2024-03-27T04:31:38.552Z,8.67
2024-03-27T04:34:06.670Z,8.67
2024-03-27T04:36:33.558Z,8.68
2024-03-27T04:39:00.640Z,8.70
2024-03-27T04:41:27.380Z,8.67
2024-03-27T04:43:54.284Z,8.67
2024-03-27T04:46:21.063Z,8.65
2024-03-27T04:48:47.796Z,8.75
2024-03-27T04:51:14.273Z,8.77
2024-03-27T04:53:41.171Z,8.74
2024-03-27T04:56:08.233Z,8.78
2024-03-27T04:58:34.975Z,8.82
2024-03-27T05:01:01.604Z,8.89
2024-03-27T05:03:28.531Z,8.92
2024-03-27T05:05:55.371Z,8.99
2024-03-27T05:08:22.006Z,9.06
2024-03-27T05:10:48.515Z,9.15
2024-03-27T05:13:16.086Z,9.19
2024-03-27T05:15:42.783Z,9.22
2024-03-27T05:18:09.692Z,9.22
2024-03-27T05:20:37.134Z,9.30
2024-03-27T05:23:03.994Z,9.35
2024-03-27T05:25:30.371Z,9.39
2024-03-27T05:27:59.145Z,9.43
2024-03-27T05:30:26.085Z,9.43
2024-03-27T05:32:52.969Z,9.52
2024-03-27T05:35:19.500Z,9.51
2024-03-27T05:37:49.100Z,9.55
2024-03-27T05:40:15.916Z,9.54
2024-03-27T05:42:45.597Z,9.56
2024-03-27T05:45:12.467Z,9.63
2024-03-27T05:47:42.507Z,9.76
2024-03-27T05:50:10.466Z,9.77
2024-03-27T05:52:37.500Z,9.91
2024-03-27T05:55:04.523Z,9.93
2024-03-27T05:57:31.310Z,10.08
2024-03-27T05:59:57.786Z,10.23
2024-03-27T06:02:24.465Z,10.30
2024-03-27T06:04:50.984Z,10.41
2024-03-27T06:07:17.715Z,10.65
2024-03-27T06:09:45.138Z,10.72
2024-03-27T06:12:12.474Z,10.82
2024-03-27T06:14:38.966Z,10.95
2024-03-27T06:17:05.721Z,11.08
2024-03-27T06:19:32.218Z,11.26
2024-03-27T06:21:59.006Z,11.64
2024-03-27T06:24:25.383Z,11.96
2024-03-27T06:26:53.813Z,12.12
2024-03-27T06:29:21.742Z,13.20
2024-03-27T06:31:48.894Z,14.07
2024-03-27T06:34:15.315Z,14.03
2024-03-27T06:36:41.987Z,13.38
2024-03-27T06:39:12.906Z,13.13
2024-03-27T06:41:40.589Z,13.19
2024-03-27T06:44:09.550Z,13.07
2024-03-27T06:46:39.420Z,13.91
2024-03-27T06:49:18.656Z,14.23
2024-03-27T06:51:46.539Z,14.35
2024-03-27T06:54:13.169Z,14.21
2024-03-27T06:56:40.121Z,13.70
2024-03-27T06:59:07.526Z,13.41
2024-03-27T07:01:35.866Z,13.08
2024-03-27T07:04:04.128Z,13.16
2024-03-27T07:06:31.350Z,13.06
2024-03-27T07:08:58.480Z,13.21
2024-03-27T07:11:25.363Z,13.22
2024-03-27T07:13:53.611Z,13.29
2024-03-27T07:16:22.197Z,13.33
2024-03-27T07:18:48.657Z,13.36
2024-03-27T07:21:15.438Z,13.51
2024-03-27T07:23:41.782Z,13.69
2024-03-27T07:26:09.312Z,13.89
2024-03-27T07:28:36.231Z,14.06
2024-03-27T07:31:07.334Z,14.05
2024-03-27T07:33:34.395Z,14.19
2024-03-27T07:36:01.302Z,14.34
2024-03-27T07:38:27.996Z,14.37
2024-03-27T07:40:54.916Z,14.61
2024-03-27T07:43:21.860Z,14.68
2024-03-27T07:45:48.745Z,14.81
2024-03-27T07:48:15.400Z,14.93
2024-03-27T07:50:42.422Z,14.84
2024-03-27T07:53:08.844Z,15.14
2024-03-27T07:55:35.562Z,15.16
2024-03-27T07:58:01.906Z,15.01
2024-03-27T08:00:29.000Z,15.20
2024-03-27T08:02:55.560Z,15.22
2024-03-27T08:05:22.310Z,15.28
2024-03-27T08:07:48.634Z,15.19
2024-03-27T08:10:15.724Z,15.23
2024-03-27T08:12:42.241Z,15.14
2024-03-27T08:15:11.346Z,15.02
2024-03-27T08:17:38.132Z,15.13
2024-03-27T08:20:06.546Z,15.02
2024-03-27T08:22:33.102Z,14.92
2024-03-27T08:24:59.927Z,14.93
2024-03-27T08:27:26.527Z,14.77
2024-03-27T08:29:54.494Z,14.91
2024-03-27T08:32:21.393Z,14.98
2024-03-27T08:34:48.080Z,14.92
2024-03-27T08:37:14.398Z,14.91
2024-03-27T08:39:42.875Z,15.02
2024-03-27T08:42:09.366Z,14.89
2024-03-27T08:44:36.089Z,15.00
2024-03-27T08:47:02.657Z,15.16
2024-03-27T08:49:29.485Z,15.21
2024-03-27T08:51:56.487Z,15.25
2024-03-27T08:54:23.275Z,15.36
2024-03-27T08:56:49.999Z,15.25
2024-03-27T08:59:16.838Z,15.44
2024-03-27T09:01:43.262Z,15.51
2024-03-27T09:04:10.031Z,15.53
2024-03-27T09:06:37.446Z,15.55
2024-03-27T09:09:05.586Z,15.58
2024-03-27T09:11:32.498Z,15.58
2024-03-27T09:13:59.495Z,15.66
2024-03-27T09:16:26.116Z,15.85
2024-03-27T09:18:53.021Z,15.86
2024-03-27T09:21:19.438Z,15.99
2024-03-27T09:23:46.471Z,16.02
2024-03-27T09:26:12.941Z,16.15
2024-03-27T09:28:39.729Z,16.24
2024-03-27T09:31:06.245Z,16.17
2024-03-27T09:33:33.145Z,16.28
2024-03-27T09:36:01.596Z,16.23
2024-03-27T09:38:33.729Z,16.21
2024-03-27T09:41:03.106Z,16.38
2024-03-27T09:43:32.563Z,16.57
2024-03-27T09:45:59.375Z,16.56
2024-03-27T09:48:26.521Z,16.53
2024-03-27T09:50:56.259Z,16.49
2024-03-27T09:53:23.020Z,16.54
2024-03-27T09:55:50.725Z,16.67
2024-03-27T09:58:18.974Z,16.78
2024-03-27T10:00:45.734Z,16.80
2024-03-27T10:03:14.949Z,16.71
2024-03-27T10:05:44.102Z,16.78
2024-03-27T10:08:10.765Z,16.85
2024-03-27T10:10:37.509Z,16.99
2024-03-27T10:13:05.017Z,17.05
2024-03-27T10:15:33.683Z,17.09
2024-03-27T10:18:00.436Z,17.22
2024-03-27T10:20:26.824Z,17.29
2024-03-27T10:22:53.525Z,17.39
2024-03-27T10:25:20.979Z,17.66
2024-03-27T10:27:48.613Z,17.59
2024-03-27T10:30:15.237Z,17.56
2024-03-27T10:32:41.925Z,17.51
2024-03-27T10:35:09.196Z,17.46
2024-03-27T10:37:36.361Z,17.57
2024-03-27T10:40:08.314Z,17.63
2024-03-27T10:42:39.345Z,17.56
2024-03-27T10:45:07.091Z,17.67
2024-03-27T10:47:34.762Z,17.67
2024-03-27T10:50:04.955Z,17.72
2024-03-27T10:52:32.833Z,17.75
2024-03-27T10:55:01.590Z,17.84
2024-03-27T10:57:28.776Z,17.84
2024-03-27T10:59:57.836Z,18.00
2024-03-27T11:02:24.599Z,17.98
2024-03-27T11:05:05.006Z,18.12
2024-03-27T11:07:35.975Z,18.08
2024-03-27T11:10:02.999Z,18.23
2024-03-27T11:12:30.459Z,18.37
2024-03-27T11:15:04.599Z,18.50
2024-03-27T11:17:32.476Z,18.66
2024-03-27T11:20:05.274Z,18.90
2024-03-27T11:22:36.491Z,18.94
2024-03-27T11:25:09.891Z,18.94
2024-03-27T11:27:38.031Z,18.96
2024-03-27T11:30:04.993Z,19.00
2024-03-27T11:32:37.687Z,19.36
2024-03-27T11:35:05.082Z,19.40
2024-03-27T11:37:31.998Z,19.22
2024-03-27T11:40:18.247Z,19.35
2024-03-27T11:42:45.210Z,19.40
2024-03-27T11:45:11.967Z,19.47
2024-03-27T11:47:39.183Z,19.49
2024-03-27T11:50:08.482Z,19.34
2024-03-27T11:52:35.495Z,19.65
2024-03-27T11:55:01.992Z,19.50
2024-03-27T11:57:30.237Z,19.52
2024-03-27T12:00:05.609Z,19.68
2024-03-27T12:02:35.116Z,19.60
2024-03-27T12:05:04.670Z,19.50
2024-03-27T12:07:36.086Z,19.37
2024-03-27T12:10:09.844Z,19.43
2024-03-27T12:12:36.858Z,19.28
2024-03-27T12:15:03.713Z,19.09
2024-03-27T12:17:40.057Z,18.82
2024-03-27T12:20:12.556Z,18.80
2024-03-27T12:22:39.296Z,18.82
2024-03-27T12:25:05.999Z,18.91
2024-03-27T12:27:33.855Z,19.08
2024-03-27T12:30:00.729Z,19.14
2024-03-27T12:32:29.034Z,19.18
2024-03-27T12:34:57.472Z,19.33
2024-03-27T12:37:25.962Z,19.37
2024-03-27T12:39:52.333Z,19.28
2024-03-27T12:42:19.071Z,19.56
2024-03-27T12:44:45.425Z,19.50
2024-03-27T12:47:12.100Z,19.68
2024-03-27T12:49:38.495Z,19.79
2024-03-27T12:52:05.164Z,19.76
2024-03-27T12:54:32.704Z,19.84
2024-03-27T12:57:00.830Z,19.94
2024-03-27T12:59:27.365Z,19.83
2024-03-27T13:01:54.522Z,19.80
2024-03-27T13:04:22.500Z,19.84
2024-03-27T13:06:49.463Z,20.21
2024-03-27T13:09:16.006Z,20.35
2024-03-27T13:11:44.124Z,20.46
2024-03-27T13:14:10.789Z,20.33
2024-03-27T13:16:37.909Z,20.33
2024-03-27T13:19:05.064Z,20.17
2024-03-27T13:21:32.221Z,20.12
2024-03-27T13:23:58.803Z,20.07
2024-03-27T13:26:26.184Z,20.12
2024-03-27T13:28:52.775Z,20.10
2024-03-27T13:31:20.172Z,20.13
2024-03-27T13:33:46.795Z,20.22
2024-03-27T13:36:13.816Z,20.25
2024-03-27T13:38:40.427Z,20.05
2024-03-27T13:41:07.384Z,20.07
2024-03-27T13:43:33.763Z,19.96
2024-03-27T13:46:01.533Z,20.00
2024-03-27T13:48:29.581Z,20.03
2024-03-27T13:50:57.099Z,19.92
2024-03-27T13:53:23.611Z,19.92
2024-03-27T13:55:50.376Z,19.71
2024-03-27T13:58:16.917Z,19.65
2024-03-27T14:00:43.671Z,19.51
2024-03-27T14:03:10.069Z,19.43
2024-03-27T14:05:37.449Z,19.50
2024-03-27T14:08:06.070Z,19.54
2024-03-27T14:10:34.393Z,19.54
2024-03-27T14:13:02.158Z,19.59
2024-03-27T14:15:29.558Z,19.51
2024-03-27T14:17:56.144Z,19.55
2024-03-27T14:20:23.135Z,19.54
2024-03-27T14:22:49.575Z,19.53
2024-03-27T14:25:17.226Z,19.56
2024-03-27T14:27:43.610Z,19.52
2024-03-27T14:30:10.933Z,19.50
2024-03-27T14:32:37.395Z,19.42
2024-03-27T14:35:05.029Z,19.54
2024-03-27T14:37:31.519Z,19.69
2024-03-27T14:39:58.286Z,19.70
2024-03-27T14:42:25.643Z,19.70
2024-03-27T14:44:52.267Z,19.86
2024-03-27T14:47:18.845Z,19.88
2024-03-27T14:49:45.755Z,20.02
2024-03-27T14:52:12.485Z,19.93
2024-03-27T14:54:39.203Z,20.03
2024-03-27T14:57:05.749Z,20.01
2024-03-27T14:59:32.642Z,19.87
2024-03-27T15:01:59.191Z,19.88
2024-03-27T15:04:26.195Z,19.74
2024-03-27T15:06:53.419Z,19.56
2024-03-27T15:09:22.048Z,19.45
2024-03-27T15:11:50.964Z,19.37
2024-03-27T15:14:17.661Z,19.34
2024-03-27T15:16:44.111Z,19.31
2024-03-27T15:19:11.055Z,19.19
2024-03-27T15:21:37.565Z,19.11
2024-03-27T15:24:05.255Z,19.12
2024-03-27T15:26:31.974Z,19.09
2024-03-27T15:28:59.172Z,19.03
2024-03-27T15:31:25.658Z,19.07
2024-03-27T15:33:52.533Z,19.19
2024-03-27T15:36:19.135Z,19.14
2024-03-27T15:38:46.000Z,19.09
2024-03-27T15:41:13.528Z,19.09
2024-03-27T15:43:40.260Z,19.03
2024-03-27T15:46:06.687Z,18.92
2024-03-27T15:48:33.743Z,18.85
2024-03-27T15:51:00.407Z,18.81
2024-03-27T15:53:27.316Z,18.75
2024-03-27T15:55:53.765Z,18.73
2024-03-27T15:58:20.656Z,18.71
2024-03-27T16:00:48.599Z,18.71
2024-03-27T16:03:15.422Z,18.55
2024-03-27T16:05:42.206Z,18.61
2024-03-27T16:08:09.031Z,18.65
2024-03-27T16:10:35.793Z,18.52
2024-03-27T16:13:02.943Z,18.52
2024-03-27T16:15:29.518Z,18.55
2024-03-27T16:17:56.420Z,18.55
2024-03-27T16:20:23.154Z,18.51
2024-03-27T16:22:51.985Z,18.50
2024-03-27T16:25:19.599Z,18.36
2024-03-27T16:27:46.346Z,18.35
2024-03-27T16:30:12.834Z,18.25
2024-03-27T16:32:39.586Z,18.19
2024-03-27T16:35:06.459Z,18.13
2024-03-27T16:37:33.213Z,18.04
2024-03-27T16:39:59.937Z,18.00
2024-03-27T16:42:26.913Z,17.92
2024-03-27T16:44:53.458Z,17.93
2024-03-27T16:47:20.384Z,17.83
2024-03-27T16:49:47.753Z,17.76
2024-03-27T16:52:14.777Z,17.72
2024-03-27T16:54:44.675Z,17.61
2024-03-27T16:57:12.185Z,17.59
2024-03-27T16:59:38.588Z,17.55
2024-03-27T17:02:05.729Z,17.51
2024-03-27T17:04:32.116Z,17.43
2024-03-27T17:06:58.845Z,17.38
2024-03-27T17:09:25.276Z,17.31
2024-03-27T17:11:52.189Z,17.26
2024-03-27T17:14:18.578Z,17.18
2024-03-27T17:16:45.603Z,17.14
2024-03-27T17:19:12.029Z,17.07
2024-03-27T17:21:39.037Z,17.02
2024-03-27T17:24:06.371Z,16.96
2024-03-27T17:26:33.997Z,16.92
2024-03-27T17:29:01.724Z,16.84
2024-03-27T17:31:28.506Z,16.79
2024-03-27T17:33:54.918Z,16.78
2024-03-27T17:36:21.903Z,16.66
2024-03-27T17:38:51.089Z,16.63
2024-03-27T17:41:18.072Z,16.55
2024-03-27T17:43:44.638Z,16.47
2024-03-27T17:46:11.335Z,16.42
2024-03-27T17:48:37.886Z,16.38
2024-03-27T17:51:05.018Z,16.31
2024-03-27T17:53:35.229Z,16.25
2024-03-27T17:56:03.703Z,16.27
2024-03-27T17:58:32.276Z,16.27
2024-03-27T18:01:12.867Z,16.26
2024-03-27T18:03:40.040Z,16.23
2024-03-27T18:06:09.205Z,16.23
2024-03-27T18:08:36.117Z,16.22
2024-03-27T18:11:04.388Z,16.19
2024-03-27T18:13:31.312Z,16.18
2024-03-27T18:16:03.258Z,16.19
2024-03-27T18:18:30.531Z,16.14
2024-03-27T18:20:59.003Z,16.08
2024-03-27T18:23:26.128Z,16.03
2024-03-27T18:25:53.252Z,15.99
2024-03-27T18:28:21.725Z,15.97
2024-03-27T18:31:00.422Z,15.96
2024-03-27T18:33:27.625Z,16.00
2024-03-27T18:35:54.629Z,16.05
2024-03-27T18:38:21.534Z,16.08
2024-03-27T18:40:48.923Z,16.08
2024-03-27T18:43:15.485Z,16.08
2024-03-27T18:45:48.345Z,16.06
2024-03-27T18:48:14.838Z,16.00
2024-03-27T18:50:41.909Z,15.98
2024-03-27T18:53:08.499Z,15.95
2024-03-27T18:55:35.515Z,15.95
2024-03-27T18:58:03.521Z,15.94
2024-03-27T19:00:30.403Z,15.93
2024-03-27T19:02:57.088Z,15.88
2024-03-27T19:05:23.851Z,15.88
2024-03-27T19:07:50.265Z,15.82
2024-03-27T19:10:17.098Z,15.75
2024-03-27T19:12:43.663Z,15.70
2024-03-27T19:15:10.608Z,15.67
2024-03-27T19:17:37.047Z,15.67
2024-03-27T19:20:04.860Z,15.62
2024-03-27T19:22:34.025Z,15.60
2024-03-27T19:25:01.034Z,15.57
2024-03-27T19:27:27.833Z,15.52
2024-03-27T19:29:54.572Z,15.47
2024-03-27T19:32:21.242Z,15.45
2024-03-27T19:34:48.508Z,15.41
2024-03-27T19:37:15.296Z,15.38
2024-03-27T19:39:42.054Z,15.34
2024-03-27T19:42:09.998Z,15.36
2024-03-27T19:44:36.982Z,15.33
2024-03-27T19:47:03.511Z,15.25
2024-03-27T19:49:30.387Z,15.20
2024-03-27T19:52:09.586Z,15.13
2024-03-27T19:54:42.140Z,15.13
2024-03-27T19:57:08.552Z,15.10
2024-03-27T19:59:35.468Z,15.05
2024-03-27T20:02:01.920Z,15.00
2024-03-27T20:04:28.595Z,15.01
2024-03-27T20:06:55.237Z,14.92
2024-03-27T20:09:22.145Z,14.87
2024-03-27T20:11:48.511Z,14.82
2024-03-27T20:14:15.343Z,14.71
2024-03-27T20:16:43.002Z,14.70
2024-03-27T20:19:09.854Z,14.68
2024-03-27T20:21:36.354Z,14.63
2024-03-27T20:24:03.343Z,14.59
2024-03-27T20:26:30.473Z,14.53
2024-03-27T20:28:57.325Z,14.51
2024-03-27T20:31:23.804Z,14.54
2024-03-27T20:33:50.953Z,14.49
2024-03-27T20:36:17.544Z,14.52
2024-03-27T20:38:44.502Z,14.51
2024-03-27T20:41:11.518Z,14.47
2024-03-27T20:43:38.239Z,14.42
2024-03-27T20:46:08.369Z,14.37
2024-03-27T20:48:35.448Z,14.37
2024-03-27T20:51:05.125Z,14.32
2024-03-27T20:53:31.981Z,14.32
2024-03-27T20:55:58.785Z,14.32
2024-03-27T20:58:25.561Z,14.31
2024-03-27T21:00:53.150Z,14.30
2024-03-27T21:03:20.195Z,14.29
2024-03-27T21:05:47.290Z,14.28
2024-03-27T21:08:14.093Z,14.29
2024-03-27T21:10:49.009Z,14.29
2024-03-27T21:13:16.322Z,14.27
2024-03-27T21:15:46.117Z,14.29
2024-03-27T21:18:13.287Z,14.30
2024-03-27T21:20:40.007Z,14.28
2024-03-27T21:23:07.423Z,14.25
2024-03-27T21:25:34.154Z,14.33
2024-03-27T21:28:01.131Z,14.33
2024-03-27T21:30:27.651Z,14.31
2024-03-27T21:32:54.617Z,14.37
2024-03-27T21:35:21.528Z,14.42
2024-03-27T21:37:48.752Z,14.39
2024-03-27T21:40:15.242Z,14.40
2024-03-27T21:42:42.316Z,14.40
2024-03-27T21:45:09.392Z,14.39
2024-03-27T21:47:36.474Z,14.37
2024-03-27T21:50:02.957Z,14.34
2024-03-27T21:52:29.850Z,14.38
2024-03-27T21:54:57.285Z,14.40
2024-03-27T21:57:24.359Z,14.39
2024-03-27T21:59:50.849Z,14.40
2024-03-27T22:02:17.909Z,14.42
2024-03-27T22:04:44.769Z,14.40
2024-03-27T22:07:11.511Z,14.40
2024-03-27T22:09:37.988Z,14.35
2024-03-27T22:12:05.417Z,14.41
2024-03-27T22:14:31.796Z,14.43
2024-03-27T22:16:58.502Z,14.43
2024-03-27T22:19:25.140Z,14.40
2024-03-27T22:21:51.755Z,14.38
2024-03-27T22:24:20.153Z,14.42
2024-03-27T22:26:47.745Z,14.42
2024-03-27T22:29:14.307Z,14.40
2024-03-27T22:31:41.168Z,14.40
2024-03-27T22:34:08.455Z,14.39
2024-03-27T22:36:35.561Z,14.36
2024-03-27T22:39:01.927Z,14.37
2024-03-27T22:41:33.095Z,14.38
2024-03-27T22:43:59.783Z,14.34
2024-03-27T22:46:26.748Z,14.35
2024-03-27T22:48:57.275Z,14.34
2024-03-27T22:51:28.594Z,14.28
2024-03-27T22:53:55.209Z,14.25
2024-03-27T22:56:22.347Z,14.22
2024-03-27T22:58:48.790Z,14.23
2024-03-27T23:01:18.947Z,14.18
2024-03-27T23:03:45.572Z,14.12
2024-03-27T23:06:12.511Z,14.10
2024-03-27T23:08:38.865Z,14.13
2024-03-27T23:11:06.020Z,14.11
2024-03-27T23:13:32.579Z,14.10
2024-03-27T23:16:00.073Z,14.05
2024-03-27T23:18:26.582Z,14.03
2024-03-27T23:20:54.499Z,14.00
2024-03-27T23:23:20.806Z,13.92
2024-03-27T23:25:48.025Z,13.95
2024-03-27T23:28:14.708Z,13.93
2024-03-27T23:30:43.672Z,13.95
2024-03-27T23:33:10.015Z,13.91
2024-03-27T23:35:36.668Z,13.87
2024-03-27T23:38:03.536Z,13.87
2024-03-27T23:40:30.497Z,13.85
2024-03-27T23:42:56.875Z,13.80
2024-03-27T23:45:23.610Z,13.75
2024-03-27T23:47:50.553Z,13.75
2024-03-27T23:50:17.313Z,13.70
2024-03-27T23:52:43.788Z,13.68
2024-03-27T23:55:10.534Z,13.70
2024-03-27T23:57:37.338Z,13.71
